Time;durP1;ratioP1;P1;durP2;ratioP2;P2;SDS_P1;SDS_P2;PMS_P1;PMS_P2;Temp;Humidity;BMP_temperature;BMP_pressure;BME280_temperature;BME280_humidity;BME280_pressure;Samples;Min_cycle;Max_cycle;Signal;HPM_P1;HPM_P2
2023/05/01 00:00:42;;;;;;;;;31.75;30.75;;;;;14.87;59.84;100850.88;5053850;28;45471;-74
2023/05/01 00:03:07;;;;;;;;;29.25;29.25;;;;;14.78;59.65;100852.22;5056841;28;45499;-76
2023/05/01 00:05:33;;;;;;;;;34.25;32.25;;;;;14.78;60.06;100851.34;5057149;28;45365;-74
2023/05/01 00:07:58;;;;;;;;;32.75;30.50;;;;;14.71;60.39;100845.53;5056789;28;45597;-72
2023/05/01 00:10:24;;;;;;;;;32.25;30.50;;;;;14.69;60.32;100844.75;5056621;28;47496;-74
2023/05/01 00:12:49;;;;;;;;;50.00;43.00;;;;;14.66;60.54;100845.75;5057109;28;45457;-74
2023/05/01 00:15:14;;;;;;;;;35.50;32.75;;;;;14.64;60.57;100844.97;5057143;28;45345;-73
2023/05/01 00:17:40;;;;;;;;;31.00;30.50;;;;;14.61;60.50;100846.00;5056756;28;45481;-74
2023/05/01 00:20:06;;;;;;;;;35.50;32.50;;;;;14.59;60.54;100850.53;5056926;28;45361;-75
2023/05/01 00:22:31;;;;;;;;;35.00;32.25;;;;;14.58;60.64;100843.53;5057284;28;45384;-75
2023/05/01 00:24:56;;;;;;;;;31.75;30.75;;;;;14.55;61.34;100840.16;5057458;28;45660;-75
2023/05/01 00:27:22;;;;;;;;;34.50;32.50;;;;;14.49;60.97;100835.19;5056977;28;46582;-75
2023/05/01 00:29:47;;;;;;;;;35.00;33.00;;;;;14.50;61.41;100845.72;5056941;28;45335;-75
2023/05/01 00:32:14;;;;;;;;;31.50;30.75;;;;;14.48;61.54;100839.66;5056763;28;45273;-74
2023/05/01 00:34:39;;;;;;;;;32.25;31.25;;;;;14.42;61.85;100834.69;5056778;28;45241;-74
2023/05/01 00:37:04;;;;;;;;;32.25;31.25;;;;;14.38;61.51;100833.13;5056215;28;45433;-75
2023/05/01 00:39:30;;;;;;;;;33.25;32.25;;;;;14.35;61.48;100834.13;5056508;28;45360;-75
2023/05/01 00:41:55;;;;;;;;;26.75;26.75;;;;;14.26;61.53;100824.03;5056751;28;45703;-74
2023/05/01 00:44:21;;;;;;;;;31.75;30.75;;;;;14.27;61.77;100836.31;5038766;28;45248;-73
2023/05/01 00:46:46;;;;;;;;;27.00;27.00;;;;;14.24;61.91;100823.25;5056348;28;45305;-75
2023/05/01 00:49:12;;;;;;;;;29.00;29.00;;;;;14.24;61.60;100829.38;5056084;28;45429;-75
2023/05/01 00:51:38;;;;;;;;;29.25;29.25;;;;;14.16;61.71;100813.06;5037911;28;45437;-73
2023/05/01 00:54:04;;;;;;;;;31.25;30.50;;;;;14.15;62.02;100814.00;5056421;28;45444;-74
2023/05/01 00:56:30;;;;;;;;;28.75;28.75;;;;;14.14;61.92;100813.16;5056156;28;45649;-74
2023/05/01 00:58:56;;;;;;;;;29.00;28.50;;;;;14.13;62.25;100819.38;5056240;28;45387;-74
2023/05/01 01:01:21;;;;;;;;;30.50;29.50;;;;;14.10;62.11;100816.00;5056444;28;45528;-73
2023/05/01 01:03:47;;;;;;;;;32.00;30.25;;;;;14.09;62.42;100807.25;5056573;28;45506;-73
2023/05/01 01:06:34;;;;;;;;;33.00;30.75;;;;;14.06;62.43;100809.19;5056024;28;46287;-74
2023/05/01 01:09:22;;;;;;;;;27.75;27.25;;;;;14.01;62.73;100797.03;5055885;28;45350;-74
2023/05/01 01:11:53;;;;;;;;;32.00;31.25;;;;;14.01;63.23;100798.84;5055416;28;45304;-74
2023/05/01 01:14:35;;;;;;;;;34.75;33.00;;;;;13.98;63.37;100797.19;5056198;28;45304;-76
2023/05/01 01:17:12;;;;;;;;;36.50;33.50;;;;;13.96;63.79;100793.78;5055824;28;45479;-76
2023/05/01 01:19:41;;;;;;;;;33.75;32.00;;;;;13.92;63.95;100786.94;5055552;28;45387;-74
2023/05/01 01:22:12;;;;;;;;;33.50;32.25;;;;;13.88;63.94;100785.38;5055658;28;45546;-74
2023/05/01 01:25:15;;;;;;;;;36.00;33.25;;;;;13.88;64.44;100788.91;5055927;28;45353;-73
2023/05/01 01:28:10;;;;;;;;;35.50;33.00;;;;;13.82;64.54;100775.13;5053938;28;47168;-73
2023/05/01 01:30:41;;;;;;;;;37.50;34.75;;;;;13.83;64.98;100783.00;5054177;28;45404;-74
2023/05/01 01:33:30;;;;;;;;;36.75;34.00;;;;;13.81;64.97;100786.63;5054213;28;45414;-74
2023/05/01 01:35:57;;;;;;;;;38.75;34.50;;;;;13.78;65.23;100778.84;5018663;28;45396;-74
2023/05/01 01:38:33;;;;;;;;;37.25;34.50;;;;;13.74;65.52;100775.50;5037487;28;47157;-73
2023/05/01 01:41:08;;;;;;;;;39.00;35.25;;;;;13.63;65.80;100762.84;5055424;28;45428;-73
2023/05/01 01:43:38;;;;;;;;;37.75;33.75;;;;;13.67;66.13;100769.69;5055413;28;45360;-74
2023/05/01 01:46:06;;;;;;;;;37.25;34.50;;;;;13.64;66.17;100764.53;5055937;28;45450;-73
2023/05/01 01:48:35;;;;;;;;;38.75;34.25;;;;;13.64;66.53;100767.19;5054040;28;46852;-76
2023/05/01 01:51:08;;;;;;;;;36.50;33.00;;;;;13.55;66.94;100765.00;5055680;28;45400;-74
2023/05/01 01:53:36;;;;;;;;;37.50;35.00;;;;;13.57;66.55;100765.78;5055510;28;45371;-74
2023/05/01 01:56:05;;;;;;;;;38.00;34.75;;;;;13.55;66.72;100765.84;5055697;28;45383;-73
2023/05/01 01:58:30;;;;;;;;;36.75;33.25;;;;;13.56;67.11;100769.34;5037276;28;47268;-73
2023/05/01 02:00:57;;;;;;;;;18.75;18.25;;;;;13.49;67.00;100766.16;5055388;28;45359;-73
2023/05/01 02:03:25;;;;;;;;;40.75;35.00;;;;;13.47;67.44;100768.00;5055816;28;45300;-73
2023/05/01 02:05:52;;;;;;;;;43.25;38.25;;;;;13.48;67.58;100775.00;5055938;28;45220;-73
2023/05/01 02:08:18;;;;;;;;;38.50;35.25;;;;;13.42;67.74;100767.38;5055275;28;46595;-73
2023/05/01 02:10:46;;;;;;;;;40.00;36.50;;;;;13.44;67.63;100776.09;5055307;28;45319;-74
2023/05/01 02:13:13;;;;;;;;;48.75;42.00;;;;;13.38;67.96;100774.59;5055292;28;45442;-74
2023/05/01 02:15:40;;;;;;;;;39.50;35.50;;;;;13.39;67.86;100775.44;5055458;28;45428;-74
2023/05/01 02:18:06;;;;;;;;;38.50;35.50;;;;;13.37;67.66;100780.81;5054996;28;46204;-74
2023/05/01 02:20:32;;;;;;;;;32.50;31.25;;;;;13.34;68.13;100785.38;5054747;28;45607;-76
2023/05/01 02:22:58;;;;;;;;;33.25;32.00;;;;;13.27;67.72;100772.47;5036898;28;45451;-72
2023/05/01 02:25:26;;;;;;;;;32.50;31.00;;;;;13.26;67.80;100781.31;5055241;28;45596;-76
2023/05/01 02:28:09;;;;;;;;;29.50;29.50;;;;;13.10;67.83;100764.50;5054797;28;46396;-73
2023/05/01 02:30:35;;;;;;;;;42.50;36.00;;;;;13.02;68.09;100750.81;5036251;28;45351;-73
2023/05/01 02:33:00;;;;;;;;;37.25;34.25;;;;;13.12;67.91;100768.75;5055079;28;45346;-74
2023/05/01 02:35:25;;;;;;;;;33.50;31.75;;;;;13.15;68.46;100775.69;5055344;28;45343;-77
2023/05/01 02:37:51;;;;;;;;;36.50;34.25;;;;;13.12;68.40;100779.31;5054597;28;45637;-75
2023/05/01 02:40:17;;;;;;;;;33.25;31.75;;;;;13.08;68.75;100775.13;5054987;28;45361;-73
2023/05/01 02:42:44;;;;;;;;;31.75;30.75;;;;;13.03;68.59;100773.66;5055550;28;45360;-72
2023/05/01 02:45:21;;;;;;;;;27.75;27.75;;;;;13.03;68.39;100778.94;5055398;28;45413;-73
2023/05/01 02:47:50;;;;;;;;;25.00;24.75;;;;;12.99;68.38;100787.00;5055320;28;46484;-75
2023/05/01 02:50:16;;;;;;;;;27.25;27.25;;;;;12.92;68.46;100785.56;5055374;28;45426;-74
2023/05/01 02:52:43;;;;;;;;;22.00;22.00;;;;;12.85;68.51;100784.13;5055584;28;45286;-74
2023/05/01 02:55:08;;;;;;;;;26.25;26.25;;;;;12.80;68.88;100784.34;5055040;28;45965;-73
2023/05/01 02:57:34;;;;;;;;;26.75;26.75;;;;;12.77;69.26;100783.66;5055179;28;46063;-75
2023/05/01 02:59:59;;;;;;;;;28.00;26.50;;;;;12.73;69.08;100782.06;5053160;28;45239;-75
2023/05/01 03:02:25;;;;;;;;;28.00;28.00;;;;;12.65;69.58;100780.63;5036883;28;45427;-76
2023/05/01 03:04:51;;;;;;;;;28.00;25.75;;;;;12.62;69.78;100780.75;5036518;28;45624;-73
2023/05/01 03:07:16;;;;;;;;;25.25;25.25;;;;;12.62;69.85;100782.56;5035574;28;48308;-75
2023/05/01 03:09:41;;;;;;;;;26.25;26.25;;;;;12.64;69.84;100791.25;5054083;28;45384;-76
2023/05/01 03:12:07;;;;;;;;;29.50;29.50;;;;;12.68;70.19;100779.63;5054836;28;45374;-75
2023/05/01 03:14:32;;;;;;;;;26.50;26.50;;;;;12.69;70.49;100784.81;5055134;28;45442;-74
2023/05/01 03:16:57;;;;;;;;;35.00;33.25;;;;;12.72;70.87;100783.84;5054520;28;45442;-75
2023/05/01 03:19:23;;;;;;;;;35.00;33.00;;;;;12.70;71.31;100773.34;5054098;28;45340;-73
2023/05/01 03:21:48;;;;;;;;;38.25;35.25;;;;;12.68;71.95;100769.06;5054745;28;45453;-74
2023/05/01 03:24:14;;;;;;;;;41.50;36.00;;;;;12.65;72.02;100770.06;5054495;28;45576;-73
2023/05/01 03:26:39;;;;;;;;;38.75;35.25;;;;;12.66;72.35;100776.22;5054160;28;45408;-74
2023/05/01 03:29:04;;;;;;;;;38.25;35.25;;;;;12.68;72.75;100780.47;5054367;28;45386;-73
2023/05/01 03:31:30;;;;;;;;;37.25;34.25;;;;;12.67;73.11;100777.91;5036607;28;45442;-73
2023/05/01 03:33:55;;;;;;;;;39.75;36.00;;;;;12.65;73.25;100777.97;5036038;28;45302;-72
2023/05/01 03:36:24;;;;;;;;;33.00;32.00;;;;;12.59;73.59;100770.34;5055319;28;46209;-74
2023/05/01 03:38:49;;;;;;;;;45.25;38.50;;;;;12.60;73.76;100777.31;5057397;28;45453;-74
2023/05/01 03:41:14;;;;;;;;;39.25;36.00;;;;;12.54;74.42;100778.47;5057375;28;45302;-72
2023/05/01 03:43:40;;;;;;;;;38.00;35.00;;;;;12.51;74.69;100780.38;5057152;28;45627;-76
2023/05/01 03:46:05;;;;;;;;;36.25;34.00;;;;;12.46;74.94;100777.09;5038971;28;47060;-76
2023/05/01 03:48:30;;;;;;;;;40.25;36.50;;;;;12.42;74.55;100787.78;5057415;28;45222;-73
2023/05/01 03:50:57;;;;;;;;;37.25;34.00;;;;;12.37;74.97;100784.50;5057289;28;45258;-74
2023/05/01 03:53:22;;;;;;;;;40.25;36.25;;;;;12.32;75.57;100793.56;5039244;28;45650;-74
2023/05/01 03:55:48;;;;;;;;;35.50;33.25;;;;;12.25;75.63;100787.69;5038854;28;45387;-76
2023/05/01 03:58:13;;;;;;;;;36.75;34.50;;;;;12.15;76.17;100781.09;5057475;28;45466;-75
2023/05/01 04:00:38;;;;;;;;;40.50;36.25;;;;;12.16;76.49;100783.66;5057318;28;45427;-74
2023/05/01 04:03:04;;;;;;;;;46.50;39.25;;;;;12.12;76.90;100790.88;5057593;28;45422;-76
2023/05/01 04:05:30;;;;;;;;;45.50;38.75;;;;;12.08;77.56;100791.91;5057350;28;46274;-77
2023/05/01 04:07:56;;;;;;;;;46.00;39.75;;;;;12.04;77.59;100785.06;5057019;28;45422;-72
2023/05/01 04:10:21;;;;;;;;;42.75;37.75;;;;;12.07;78.30;100792.84;5057060;28;45378;-75
2023/05/01 04:12:47;;;;;;;;;46.75;40.25;;;;;12.03;78.87;100788.63;5057133;28;45229;-74
2023/05/01 04:15:12;;;;;;;;;52.50;42.75;;;;;11.98;79.32;100790.56;5056999;28;45518;-74
2023/05/01 04:17:38;;;;;;;;;54.00;44.00;;;;;11.96;79.69;100795.06;5057037;28;45185;-73
2023/05/01 04:20:05;;;;;;;;;49.50;41.75;;;;;11.84;80.30;100784.09;5056854;28;45250;-73
2023/05/01 04:22:30;;;;;;;;;51.00;43.75;;;;;11.84;81.49;100785.88;5056132;28;45272;-74
2023/05/01 04:24:56;;;;;;;;;50.50;43.00;;;;;11.81;81.17;100792.16;5056572;28;46190;-75
2023/05/01 04:27:21;;;;;;;;;56.00;47.00;;;;;11.80;81.47;100797.47;5056701;28;45330;-76
2023/05/01 04:29:46;;;;;;;;;51.75;42.00;;;;;11.73;81.67;100788.97;5056272;28;55086;-75
2023/05/01 04:32:11;;;;;;;;;56.75;46.75;;;;;11.65;82.79;100793.69;5056892;28;45731;-76
2023/05/01 04:34:37;;;;;;;;;54.50;46.50;;;;;11.66;83.70;100800.66;5056249;28;46441;-74
2023/05/01 04:37:02;;;;;;;;;59.25;48.00;;;;;11.58;84.05;100805.38;5056043;28;57549;-75
2023/05/01 04:39:28;;;;;;;;;55.50;46.25;;;;;11.59;84.38;100807.09;5056631;28;45293;-76
2023/05/01 04:41:53;;;;;;;;;62.00;50.25;;;;;11.58;84.65;100805.38;5056736;28;45300;-74
2023/05/01 04:44:19;;;;;;;;;57.75;44.50;;;;;11.60;84.52;100809.69;5056622;28;45327;-73
2023/05/01 04:46:45;;;;;;;;;52.00;43.50;;;;;11.59;84.92;100804.47;5055810;28;45335;-75
2023/05/01 04:49:10;;;;;;;;;55.50;46.25;;;;;11.63;85.02;100811.31;5056440;28;45394;-76
2023/05/01 04:51:35;;;;;;;;;59.00;47.50;;;;;11.67;84.99;100811.16;5056825;28;45422;-73
2023/05/01 04:54:01;;;;;;;;;57.75;48.00;;;;;11.69;85.27;100813.75;5057309;28;46491;-75
2023/05/01 04:56:26;;;;;;;;;58.00;46.50;;;;;11.74;85.20;100805.63;5056941;28;45471;-75
2023/05/01 04:58:51;;;;;;;;;55.50;46.00;;;;;11.74;85.00;100803.00;5056521;28;45371;-74
2023/05/01 05:01:17;;;;;;;;;59.25;48.75;;;;;11.78;85.61;100810.72;5056432;28;45514;-73
2023/05/01 05:03:42;;;;;;;;;53.75;44.25;;;;;11.75;85.41;100810.84;5037390;28;54598;-76
2023/05/01 05:06:08;;;;;;;;;51.00;42.75;;;;;11.77;85.27;100803.75;5055977;28;45335;-75
2023/05/01 05:08:33;;;;;;;;;52.00;44.75;;;;;11.86;85.61;100812.19;5056674;28;45328;-75
2023/05/01 05:10:59;;;;;;;;;53.75;45.00;;;;;11.82;85.62;100814.06;5056189;28;45547;-75
2023/05/01 05:13:25;;;;;;;;;54.00;45.50;;;;;11.88;85.24;100820.88;5055814;28;45519;-73
2023/05/01 05:15:50;;;;;;;;;57.75;47.25;;;;;11.89;85.50;100822.59;5055517;28;45340;-73
2023/05/01 05:18:15;;;;;;;;;56.75;47.75;;;;;11.88;85.25;100816.44;5035332;28;45501;-73
2023/05/01 05:20:41;;;;;;;;;51.50;43.25;;;;;11.94;85.74;100826.72;5055843;28;45486;-74
2023/05/01 05:23:06;;;;;;;;;54.75;46.50;;;;;11.98;85.69;100828.31;5055911;28;45353;-74
2023/05/01 05:25:32;;;;;;;;;52.25;44.25;;;;;11.95;85.24;100819.69;5055786;28;45190;-77
2023/05/01 05:27:59;;;;;;;;;55.00;45.50;;;;;11.98;85.38;100825.69;5055690;28;45428;-75
2023/05/01 05:30:25;;;;;;;;;53.25;43.75;;;;;11.95;85.77;100820.53;5055797;28;45326;-73
2023/05/01 05:32:50;;;;;;;;;60.50;49.50;;;;;11.92;85.38;100812.75;5037190;28;45477;-76
2023/05/01 05:35:15;;;;;;;;;54.00;45.50;;;;;11.99;85.77;100827.41;5055653;28;45476;-76
2023/05/01 05:37:41;;;;;;;;;59.00;48.50;;;;;11.97;85.74;100820.50;5055906;28;45340;-75
2023/05/01 05:40:08;;;;;;;;;55.50;45.75;;;;;12.04;85.45;100824.63;5056458;28;45494;-74
2023/05/01 05:42:33;;;;;;;;;52.75;45.00;;;;;12.05;85.66;100823.69;5055224;28;45481;-72
2023/05/01 05:44:58;;;;;;;;;54.75;46.50;;;;;12.04;85.25;100819.34;5055657;28;45267;-74
2023/05/01 05:47:24;;;;;;;;;51.75;44.75;;;;;12.12;85.35;100822.50;5055983;28;45607;-73
2023/05/01 05:49:49;;;;;;;;;57.00;47.75;;;;;12.13;85.26;100831.25;5055943;28;45579;-74
2023/05/01 05:52:14;;;;;;;;;59.00;48.00;;;;;12.17;85.25;100822.28;5055587;28;46314;-74
2023/05/01 05:54:40;;;;;;;;;55.25;46.50;;;;;12.19;85.27;100824.88;5055494;28;45320;-74
2023/05/01 05:57:05;;;;;;;;;59.25;49.50;;;;;12.21;84.82;100823.91;5056082;28;45245;-73
2023/05/01 05:59:31;;;;;;;;;57.75;47.50;;;;;12.21;84.76;100816.00;5054765;28;45508;-77
2023/05/01 06:01:57;;;;;;;;;57.50;47.25;;;;;12.27;84.43;100826.28;5037108;28;47761;-73
2023/05/01 06:04:22;;;;;;;;;57.00;47.00;;;;;12.34;84.59;100826.00;5055042;28;45637;-76
2023/05/01 06:06:48;;;;;;;;;56.00;46.50;;;;;12.46;84.41;100827.22;5055413;28;45410;-77
2023/05/01 06:09:14;;;;;;;;;55.25;45.75;;;;;12.49;83.54;100822.69;5055614;28;45434;-75
2023/05/01 06:11:39;;;;;;;;;59.50;49.50;;;;;12.53;83.77;100815.47;5055621;28;45756;-75
2023/05/01 06:14:04;;;;;;;;;56.00;47.00;;;;;12.55;83.00;100816.25;5054976;28;45516;-74
2023/05/01 06:16:30;;;;;;;;;57.25;46.50;;;;;12.58;82.61;100821.41;5055335;28;45304;-74
2023/05/01 06:18:55;;;;;;;;;53.50;45.25;;;;;12.59;82.50;100827.56;5055168;28;45418;-74
2023/05/01 06:21:21;;;;;;;;;59.50;49.25;;;;;12.61;82.43;100825.69;5055038;28;45438;-74
2023/05/01 06:23:46;;;;;;;;;51.00;43.75;;;;;12.61;82.44;100830.97;5054943;28;45459;-75
2023/05/01 06:26:11;;;;;;;;;51.50;43.75;;;;;12.61;82.43;100828.34;5055117;28;45868;-75
2023/05/01 06:28:37;;;;;;;;;56.50;46.75;;;;;12.56;82.17;100824.13;5055672;28;45510;-75
2023/05/01 06:31:02;;;;;;;;;59.50;48.25;;;;;12.53;81.98;100831.31;5061920;28;46654;-75
2023/05/01 06:33:27;;;;;;;;;51.00;43.75;;;;;12.56;82.29;100839.09;5073396;27;45469;-76
2023/05/01 06:35:53;;;;;;;;;60.00;48.75;;;;;12.55;82.25;100829.47;5075142;28;45555;-74
2023/05/01 06:38:19;;;;;;;;;50.50;42.50;;;;;12.46;81.98;100814.91;5075642;28;45267;-77
2023/05/01 06:40:46;;;;;;;;;57.50;47.50;;;;;12.59;81.92;100838.94;5075835;27;46027;-75
2023/05/01 06:43:11;;;;;;;;;53.25;44.75;;;;;12.55;82.14;100827.69;5075686;28;45423;-75
2023/05/01 06:45:38;;;;;;;;;55.25;46.75;;;;;12.57;82.28;100833.75;5075565;28;45390;-75
2023/05/01 06:48:04;;;;;;;;;59.00;47.75;;;;;12.55;82.14;100835.59;5075366;27;45397;-75
2023/05/01 06:50:29;;;;;;;;;57.50;47.25;;;;;12.54;82.04;100846.22;5075245;28;46171;-74
2023/05/01 06:52:55;;;;;;;;;56.00;46.00;;;;;12.52;82.26;100837.50;5074566;28;50463;-74
2023/05/01 06:55:20;;;;;;;;;51.75;44.00;;;;;12.52;82.42;100837.50;5074513;27;45471;-75
2023/05/01 06:57:45;;;;;;;;;58.50;49.25;;;;;12.51;82.95;100834.03;5073597;28;45683;-73
2023/05/01 07:00:11;;;;;;;;;60.00;49.50;;;;;12.50;82.67;100842.00;5074910;27;46086;-74
2023/05/01 07:02:37;;;;;;;;;54.00;45.50;;;;;12.46;82.75;100838.66;5056170;27;45505;-74
2023/05/01 07:05:02;;;;;;;;;59.25;48.25;;;;;12.52;83.06;100842.78;5074566;28;45465;-74
2023/05/01 07:07:29;;;;;;;;;54.50;46.00;;;;;12.56;82.85;100849.63;5074961;27;45548;-72
2023/05/01 07:09:55;;;;;;;;;54.25;44.75;;;;;12.61;82.90;100852.09;5074033;28;45634;-75
2023/05/01 07:12:21;;;;;;;;;57.25;46.50;;;;;12.60;82.53;100853.00;5056023;28;45918;-75
2023/05/01 07:14:46;;;;;;;;;50.75;43.50;;;;;12.64;82.37;100866.00;5073901;27;45306;-75
2023/05/01 07:17:12;;;;;;;;;57.25;47.00;;;;;12.61;82.33;100855.56;5074681;28;45205;-75
2023/05/01 07:19:37;;;;;;;;;56.50;45.75;;;;;12.64;82.72;100859.88;5073724;28;54857;-75
2023/05/01 07:22:03;;;;;;;;;50.75;43.50;;;;;12.68;82.30;100857.00;5074022;28;45422;-75
2023/05/01 07:24:29;;;;;;;;;58.25;47.75;;;;;12.79;82.25;100863.63;5074603;28;45942;-76
2023/05/01 07:26:55;;;;;;;;;53.25;45.00;;;;;12.87;81.48;100866.78;5056102;28;45516;-74
2023/05/01 07:29:20;;;;;;;;;57.00;48.00;;;;;12.88;81.43;100864.97;5074116;28;45480;-76
2023/05/01 07:31:47;;;;;;;;;53.50;45.25;;;;;12.89;81.31;100866.69;5074665;28;45481;-77
2023/05/01 07:34:12;;;;;;;;;53.50;45.25;;;;;13.00;80.96;100870.56;5075698;28;45308;-77
2023/05/01 07:36:38;;;;;;;;;53.50;44.75;;;;;13.16;81.22;100867.22;5075566;28;45633;-77
2023/05/01 07:39:03;;;;;;;;;51.25;42.75;;;;;13.35;80.49;100869.84;5068390;27;46870;-74
2023/05/01 07:41:30;;;;;;;;;51.00;43.25;;;;;13.54;79.09;100869.84;5053557;28;45411;-78
2023/05/01 07:43:57;;;;;;;;;49.75;42.50;;;;;13.65;79.23;100860.53;5046160;28;45504;-75
2023/05/01 07:46:23;;;;;;;;;45.75;38.50;;;;;13.78;77.88;100876.66;5074210;27;45577;-77
2023/05/01 07:48:48;;;;;;;;;50.00;42.00;;;;;13.83;78.03;100872.88;5073592;28;45550;-73
2023/05/01 07:51:13;;;;;;;;;45.75;39.50;;;;;13.84;77.60;100876.38;5056966;28;45391;-76
2023/05/01 07:53:41;;;;;;;;;49.25;40.50;;;;;13.86;77.70;100864.81;5061449;28;45365;-77
2023/05/01 07:56:08;;;;;;;;;43.75;37.25;;;;;13.93;77.28;100860.03;5063931;28;45398;-74
2023/05/01 07:58:35;;;;;;;;;43.00;37.25;;;;;13.91;76.63;100851.34;5060757;28;47159;-74
2023/05/01 08:01:00;;;;;;;;;32.00;31.00;;;;;14.06;75.71;100872.66;5070676;28;45421;-77
2023/05/01 08:03:29;;;;;;;;;33.50;32.00;;;;;14.03;75.92;100873.69;5058576;28;45497;-76
2023/05/01 08:05:56;;;;;;;;;33.25;30.75;;;;;14.11;75.77;100875.91;5064437;28;45481;-75
2023/05/01 08:08:21;;;;;;;;;30.75;30.25;;;;;14.13;75.55;100866.13;5034335;28;47569;-75
2023/05/01 08:10:47;;;;;;;;;30.00;29.25;;;;;14.22;74.49;100873.59;5063668;27;45407;-73
2023/05/01 08:13:13;;;;;;;;;30.50;30.00;;;;;14.17;74.02;100878.25;5034629;28;45302;-75
2023/05/01 08:15:41;;;;;;;;;27.50;26.25;;;;;14.10;74.23;100877.72;5058329;28;45407;-77
2023/05/01 08:18:07;;;;;;;;;27.00;27.00;;;;;14.13;74.43;100877.56;5072096;27;45265;-78
2023/05/01 08:20:32;;;;;;;;;30.75;28.75;;;;;14.21;74.35;100877.16;5073054;28;45497;-76
2023/05/01 08:22:57;;;;;;;;;26.75;25.75;;;;;14.26;74.20;100872.50;5060513;28;52126;-76
2023/05/01 08:25:23;;;;;;;;;25.25;24.75;;;;;14.28;73.83;100872.44;5057642;28;45511;-77
2023/05/01 08:27:49;;;;;;;;;23.00;23.00;;;;;14.27;73.41;100882.16;5056146;28;45641;-76
2023/05/01 08:30:14;;;;;;;;;23.25;23.25;;;;;14.17;73.20;100881.78;5059306;28;45485;-75
2023/05/01 08:32:40;;;;;;;;;24.25;24.25;;;;;14.16;73.59;100887.13;5055538;28;45504;-76
2023/05/01 08:35:05;;;;;;;;;30.75;30.25;;;;;14.15;74.26;100881.00;5057324;28;45564;-76
2023/05/01 08:37:31;;;;;;;;;26.75;26.75;;;;;14.26;73.92;100882.25;5075920;27;46361;-75
2023/05/01 08:39:56;;;;;;;;;27.50;27.25;;;;;14.36;73.79;100882.63;5075977;28;45330;-77
2023/05/01 08:42:21;;;;;;;;;29.75;29.75;;;;;14.44;73.54;100883.09;5075844;27;45350;-76
2023/05/01 08:44:49;;;;;;;;;33.00;30.00;;;;;14.52;73.59;100885.31;5074297;27;45577;-75
2023/05/01 08:47:17;;;;;;;;;28.25;28.25;;;;;14.59;73.30;100881.41;5062733;28;45418;-74
2023/05/01 08:49:44;;;;;;;;;27.00;27.00;;;;;14.58;73.01;100875.28;5075617;27;45427;-75
2023/05/01 08:52:14;;;;;;;;;26.25;26.00;;;;;14.78;72.55;100899.00;5074605;28;45485;-75
2023/05/01 08:54:44;;;;;;;;;25.00;24.00;;;;;14.88;72.44;100895.81;5057562;28;45612;-76
2023/05/01 08:57:11;;;;;;;;;25.25;24.00;;;;;14.92;72.05;100907.13;5073593;27;45407;-74
2023/05/01 08:59:37;;;;;;;;;28.00;27.00;;;;;14.92;72.14;100912.41;5061577;28;45525;-75
2023/05/01 09:02:05;;;;;;;;;27.75;27.75;;;;;14.88;72.07;100910.88;5056359;28;45379;-75
2023/05/01 09:04:40;;;;;;;;;25.00;25.00;;;;;14.83;72.04;100913.75;5056683;28;45442;-76
2023/05/01 09:07:07;;;;;;;;;30.00;30.00;;;;;14.79;72.21;100916.63;5056166;28;45957;-76
2023/05/01 09:09:33;;;;;;;;;27.50;27.50;;;;;14.82;72.12;100912.03;5037928;28;45428;-74
2023/05/01 09:12:24;;;;;;;;;25.75;23.75;;;;;14.83;72.11;100921.69;5055819;28;45264;-74
2023/05/01 09:14:54;;;;;;;;;25.25;25.25;;;;;14.83;72.56;100907.56;5071094;28;45674;-75
2023/05/01 09:17:21;;;;;;;;;24.75;24.75;;;;;14.84;72.27;100911.94;5055235;28;46486;-76
2023/05/01 09:19:48;;;;;;;;;23.75;23.75;;;;;14.85;72.16;100901.28;5065800;28;45371;-75
2023/05/01 09:22:15;;;;;;;;;21.50;21.50;;;;;14.85;72.12;100914.53;5074914;27;45469;-74
2023/05/01 09:24:40;;;;;;;;;23.75;23.25;;;;;14.89;72.29;100910.78;5056737;28;45409;-75
2023/05/01 09:27:06;;;;;;;;;19.75;19.00;;;;;14.90;71.96;100915.13;5072247;27;45719;-74
2023/05/01 09:29:41;;;;;;;;;19.75;19.00;;;;;14.82;71.97;100913.81;5075124;27;45379;-75
2023/05/01 09:32:24;;;;;;;;;21.50;21.50;;;;;14.78;72.29;100915.78;5062060;27;45719;-76
2023/05/01 09:34:51;;;;;;;;;24.00;23.75;;;;;14.79;72.77;100917.50;5053779;28;45542;-77
2023/05/01 09:37:31;;;;;;;;;13.50;13.50;;;;;14.73;72.61;100923.94;5055007;28;46828;-71
2023/05/01 09:40:03;;;;;;;;;18.50;18.50;;;;;14.68;72.71;100918.00;5053384;28;45449;-73
2023/05/01 09:42:30;;;;;;;;;18.25;18.25;;;;;14.64;73.22;100923.56;5054951;28;45442;-73
2023/05/01 09:44:55;;;;;;;;;20.75;20.75;;;;;14.67;73.34;100926.88;5071274;27;45613;-75
2023/05/01 09:47:21;;;;;;;;;23.25;23.25;;;;;14.69;73.86;100932.97;5074197;27;46023;-73
2023/05/01 09:49:48;;;;;;;;;19.75;19.00;;;;;14.69;73.74;100932.13;5075614;27;45464;-74
2023/05/01 09:52:14;;;;;;;;;17.25;17.25;;;;;14.63;73.81;100930.63;5075660;27;45186;-76
2023/05/01 09:54:40;;;;;;;;;19.00;19.00;;;;;14.57;74.37;100923.88;5075358;28;45259;-77
2023/05/01 09:57:07;;;;;;;;;18.75;18.25;;;;;14.63;74.72;100925.34;5063612;28;47074;-83
2023/05/01 09:59:33;;;;;;;;;19.75;19.75;;;;;14.64;74.60;100913.81;5051728;28;45595;-79
2023/05/01 10:02:00;;;;;;;;;23.50;22.50;;;;;14.77;74.66;100923.78;5050259;27;45543;-81
2023/05/01 10:04:33;;;;;;;;;21.25;21.25;;;;;14.83;74.11;100929.63;5070236;27;45800;-74
2023/05/01 10:07:11;;;;;;;;;15.25;13.50;;;;;14.95;73.46;100928.13;5066218;27;45447;-78
2023/05/01 10:09:36;;;;;;;;;21.50;20.50;;;;;15.07;72.92;100929.25;5071523;27;45591;-77
2023/05/01 10:12:02;;;;;;;;;11.00;11.00;;;;;15.02;72.34;100894.22;5070416;27;46087;-75
2023/05/01 10:14:29;;;;;;;;;10.00;10.00;;;;;15.22;72.04;100919.63;5042542;27;45610;-74
2023/05/01 10:16:56;;;;;;;;;14.50;14.00;;;;;15.31;71.92;100923.56;5057253;28;46211;-73
2023/05/01 10:19:22;;;;;;;;;12.50;12.25;;;;;15.35;71.69;100919.81;5058584;28;45256;-73
2023/05/01 10:21:48;;;;;;;;;10.50;10.25;;;;;15.36;71.58;100912.72;5064213;28;45375;-75
2023/05/01 10:24:15;;;;;;;;;10.50;10.50;;;;;15.34;71.24;100918.09;5072635;28;45481;-73
2023/05/01 10:26:42;;;;;;;;;13.75;13.75;;;;;15.36;71.86;100924.16;5052646;28;47248;-75
2023/05/01 10:29:08;;;;;;;;;13.25;13.25;;;;;15.32;71.72;100912.91;5066725;28;45414;-74
2023/05/01 10:31:34;;;;;;;;;14.00;14.00;;;;;15.33;72.14;100917.25;5054038;28;45756;-74
2023/05/01 10:34:01;;;;;;;;;14.75;14.75;;;;;15.46;71.70;100917.44;5067776;27;45509;-74
2023/05/01 10:36:38;;;;;;;;;17.75;17.00;;;;;15.58;71.28;100915.88;5074501;27;45782;-72
2023/05/01 10:39:04;;;;;;;;;12.50;12.50;;;;;15.63;70.82;100916.47;5074186;28;45493;-75
2023/05/01 10:41:57;;;;;;;;;16.75;16.75;;;;;15.68;70.78;100918.03;5072545;27;45617;-73
2023/05/01 10:44:25;;;;;;;;;18.00;18.00;;;;;15.76;70.65;100908.69;5072904;27;45446;-75
2023/05/01 10:46:51;;;;;;;;;18.50;18.50;;;;;15.86;70.73;100914.31;5064550;27;46523;-75
2023/05/01 10:49:17;;;;;;;;;22.25;21.50;;;;;15.96;70.32;100919.16;5054288;28;45734;-75
2023/05/01 10:51:57;;;;;;;;;21.00;21.00;;;;;15.99;70.27;100911.88;5070162;27;45498;-82
2023/05/01 10:54:25;;;;;;;;;20.75;20.00;;;;;16.05;70.30;100908.00;5058096;28;45396;-81
2023/05/01 10:56:51;;;;;;;;;20.50;19.75;;;;;16.14;69.99;100922.53;5055874;28;46138;-80
2023/05/01 10:59:17;;;;;;;;;16.00;15.75;;;;;16.09;69.75;100914.84;5052066;28;45406;-79
2023/05/01 11:01:44;;;;;;;;;18.50;17.50;;;;;16.09;70.01;100914.84;5077528;27;45462;-77
2023/05/01 11:04:21;;;;;;;;;21.75;21.75;;;;;16.14;70.31;100911.91;5077491;28;45275;-78
2023/05/01 11:07:06;;;;;;;;;16.75;16.75;;;;;16.16;69.86;100910.03;5077803;28;45482;-78
2023/05/01 11:09:54;;;;;;;;;17.50;16.25;;;;;16.19;69.88;100905.41;5057699;28;45251;-76